Time;durP1;ratioP1;P1;durP2;ratioP2;P2;SDS_P1;SDS_P2;PMS_P1;PMS_P2;Temp;Humidity;BMP_temperature;BMP_pressure;BME280_temperature;BME280_humidity;BME280_pressure;Samples;Min_cycle;Max_cycle;Signal;HPM_P1;HPM_P2
2022/01/29 00:19:23;;;;;;;15.90;13.32;;;;;;;;;;4451822;28;20421;-59
2022/01/29 00:21:49;;;;;;;16.30;14.15;;;;;;;;;;4209312;34;20143;-59
2022/01/29 00:24:15;;;;;;;14.77;13.18;;;;;;;;;;4207054;34;20530;-59
2022/01/29 00:26:41;;;;;;;17.12;14.18;;;;;;;;;;4198436;34;20114;-59
2022/01/29 00:29:18;;;;;;;14.25;12.77;;;;;;;;;;4203507;34;20141;-60
2022/01/29 00:31:44;;;;;;;14.27;12.77;;;;;;;;;;4189675;34;20126;-60
2022/01/29 00:34:10;;;;;;;15.30;13.43;;;;;;;;;;4176414;34;20555;-59
2022/01/29 00:36:36;;;;;;;14.80;13.20;;;;;;;;;;4190931;34;20110;-59
2022/01/29 00:39:03;;;;;;;13.73;12.15;;;;;;;;;;4215894;34;20117;-60
2022/01/29 00:41:29;;;;;;;14.43;12.73;;;;;;;;;;4192332;34;20121;-60
2022/01/29 00:43:55;;;;;;;14.63;13.13;;;;;;;;;;4189532;34;20126;-60
2022/01/29 00:46:21;;;;;;;14.13;12.63;;;;;;;;;;4188824;34;20102;-59
2022/01/29 00:48:47;;;;;;;14.87;12.82;;;;;;;;;;4189323;34;20118;-60
2022/01/29 00:51:13;;;;;;;13.48;11.98;;;;;;;;;;4189562;34;20210;-59
2022/01/29 00:53:39;;;;;;;14.02;11.95;;;;;;;;;;4203808;34;20114;-59
2022/01/29 00:56:07;;;;;;;14.18;11.93;;;;;;;;;;4203603;34;20122;-58
2022/01/29 00:58:33;;;;;;;13.88;12.25;;;;;;;;;;4205215;34;20133;-59
2022/01/29 01:01:00;;;;;;;15.55;13.68;;;;;;;;;;4169383;34;20116;-60
2022/01/29 01:03:26;;;;;;;16.75;12.50;;;;;;;;;;4205362;34;20522;-60
2022/01/29 01:05:52;;;;;;;13.68;12.07;;;;;;;;;;4196190;34;20126;-60
2022/01/29 01:08:18;;;;;;;13.15;11.75;;;;;;;;;;4191495;34;20113;-60
2022/01/29 01:10:44;;;;;;;14.07;12.32;;;;;;;;;;4190811;34;20116;-61
2022/01/29 01:13:10;;;;;;;14.05;12.63;;;;;;;;;;4191396;34;20118;-61
2022/01/29 01:15:36;;;;;;;14.18;12.45;;;;;;;;;;4190962;34;20110;-61
2022/01/29 01:18:02;;;;;;;16.98;12.82;;;;;;;;;;4191563;34;20229;-59
2022/01/29 01:20:28;;;;;;;14.50;12.75;;;;;;;;;;4195247;34;20622;-59
2022/01/29 01:22:54;;;;;;;17.73;13.50;;;;;;;;;;4204906;34;20525;-60
2022/01/29 01:25:21;;;;;;;19.10;13.30;;;;;;;;;;4205359;34;20125;-60
2022/01/29 01:27:47;;;;;;;17.15;13.50;;;;;;;;;;4203441;34;20213;-61
2022/01/29 01:30:13;;;;;;;15.63;12.95;;;;;;;;;;4204528;34;20090;-61
2022/01/29 01:32:39;;;;;;;14.98;12.90;;;;;;;;;;4205173;34;20122;-61
2022/01/29 01:38:16;;;;;;;14.70;12.43;;;;;;;;;;4195761;34;20106;-60
2022/01/29 01:40:45;;;;;;;16.25;12.98;;;;;;;;;;4204697;34;20108;-61
2022/01/29 01:43:11;;;;;;;16.23;12.55;;;;;;;;;;4205114;34;20106;-60
2022/01/29 01:45:38;;;;;;;16.55;12.77;;;;;;;;;;4204387;34;20201;-61
2022/01/29 01:48:06;;;;;;;17.58;13.23;;;;;;;;;;4204686;34;20236;-61
2022/01/29 01:50:36;;;;;;;15.75;12.30;;;;;;;;;;4203158;34;20121;-60
2022/01/29 01:53:03;;;;;;;16.60;11.80;;;;;;;;;;4204053;34;20117;-60
2022/01/29 01:55:29;;;;;;;14.40;12.23;;;;;;;;;;4191965;34;20205;-60
2022/01/29 01:57:57;;;;;;;15.32;12.25;;;;;;;;;;4204411;34;20120;-60
2022/01/29 02:00:24;;;;;;;14.77;12.18;;;;;;;;;;4204139;34;20128;-60
2022/01/29 02:02:51;;;;;;;14.02;11.82;;;;;;;;;;4204766;34;20106;-60
2022/01/29 02:05:17;;;;;;;13.65;11.18;;;;;;;;;;4204680;34;20178;-61
2022/01/29 02:07:44;;;;;;;12.45;11.20;;;;;;;;;;4204600;34;20197;-61
2022/01/29 02:10:12;;;;;;;13.57;11.57;;;;;;;;;;4191189;34;20124;-61
2022/01/29 02:12:49;;;;;;;12.65;10.80;;;;;;;;;;4204929;34;20228;-60
2022/01/29 02:15:19;;;;;;;13.35;11.93;;;;;;;;;;4204697;34;20094;-60
2022/01/29 02:17:46;;;;;;;15.57;12.18;;;;;;;;;;4204508;34;20125;-60
2022/01/29 02:20:17;;;;;;;12.77;11.35;;;;;;;;;;4204103;34;20109;-60
2022/01/29 02:22:44;;;;;;;14.05;12.13;;;;;;;;;;4190666;34;20477;-59
2022/01/29 02:25:29;;;;;;;16.75;13.75;;;;;;;;;;4195716;34;20106;-59
2022/01/29 02:27:58;;;;;;;12.93;11.47;;;;;;;;;;4204715;34;20200;-60
2022/01/29 02:30:24;;;;;;;17.98;12.60;;;;;;;;;;4198137;34;20121;-60
2022/01/29 02:32:50;;;;;;;15.30;12.57;;;;;;;;;;4190792;34;20589;-60
2022/01/29 02:35:16;;;;;;;16.55;12.40;;;;;;;;;;4177608;34;20094;-60
2022/01/29 02:37:42;;;;;;;15.88;12.88;;;;;;;;;;4190654;34;20110;-60
2022/01/29 02:40:08;;;;;;;15.15;12.93;;;;;;;;;;4177677;34;20126;-60
2022/01/29 02:42:35;;;;;;;15.23;13.02;;;;;;;;;;4190030;34;20120;-60
2022/01/29 02:45:01;;;;;;;14.63;12.15;;;;;;;;;;4189906;34;20108;-60
2022/01/29 02:47:30;;;;;;;16.15;13.95;;;;;;;;;;4188687;34;20142;-60
2022/01/29 02:49:56;;;;;;;15.77;13.30;;;;;;;;;;4189524;34;20557;-59
2022/01/29 02:52:22;;;;;;;15.30;12.70;;;;;;;;;;4195096;34;20120;-60
2022/01/29 02:54:48;;;;;;;14.10;12.57;;;;;;;;;;4207295;34;20102;-61
2022/01/29 02:57:15;;;;;;;17.33;12.85;;;;;;;;;;4207319;34;20898;-60
2022/01/29 02:59:41;;;;;;;15.88;12.73;;;;;;;;;;4205332;34;20559;-60
2022/01/29 03:02:07;;;;;;;15.40;12.77;;;;;;;;;;4209072;34;20234;-61
2022/01/29 03:04:33;;;;;;;14.43;12.63;;;;;;;;;;4204603;34;20109;-60
2022/01/29 03:06:59;;;;;;;15.90;13.32;;;;;;;;;;4208053;34;20105;-60
2022/01/29 03:09:25;;;;;;;16.80;13.50;;;;;;;;;;4207412;34;21452;-60
2022/01/29 03:11:51;;;;;;;17.80;13.50;;;;;;;;;;4207109;34;20113;-61
2022/01/29 03:14:17;;;;;;;17.37;13.70;;;;;;;;;;4205520;34;20121;-60
2022/01/29 03:16:43;;;;;;;16.58;13.15;;;;;;;;;;4209677;34;20495;-60
2022/01/29 03:19:09;;;;;;;16.35;14.32;;;;;;;;;;4217676;34;20137;-60
2022/01/29 03:21:35;;;;;;;15.15;13.10;;;;;;;;;;4209973;34;20112;-60
2022/01/29 03:24:01;;;;;;;16.30;13.60;;;;;;;;;;4214756;34;20117;-60
2022/01/29 03:26:27;;;;;;;18.87;14.45;;;;;;;;;;4207475;34;20442;-60
2022/01/29 03:28:54;;;;;;;19.48;16.42;;;;;;;;;;4210025;34;20123;-60
2022/01/29 03:31:20;;;;;;;16.08;13.38;;;;;;;;;;4203632;34;20117;-60
2022/01/29 03:33:46;;;;;;;17.52;14.43;;;;;;;;;;4217980;34;20111;-60
2022/01/29 03:36:12;;;;;;;15.70;13.10;;;;;;;;;;4211890;34;20090;-61
2022/01/29 03:38:40;;;;;;;17.23;13.65;;;;;;;;;;4217622;34;20125;-60
2022/01/29 03:41:07;;;;;;;16.17;14.38;;;;;;;;;;4203819;34;20189;-60
2022/01/29 03:43:41;;;;;;;17.33;14.43;;;;;;;;;;4205088;34;20134;-60
2022/01/29 03:46:07;;;;;;;18.02;15.32;;;;;;;;;;4197796;34;20189;-60
2022/01/29 03:48:33;;;;;;;18.87;14.73;;;;;;;;;;4186276;34;20106;-60
2022/01/29 03:50:59;;;;;;;19.52;15.98;;;;;;;;;;4199064;34;20114;-60
2022/01/29 03:53:25;;;;;;;21.52;15.35;;;;;;;;;;4201439;34;20125;-60
2022/01/29 03:55:51;;;;;;;18.67;15.40;;;;;;;;;;4203643;34;20140;-60
2022/01/29 03:58:17;;;;;;;18.83;15.07;;;;;;;;;;4190939;34;20217;-60
2022/01/29 04:00:43;;;;;;;19.85;15.32;;;;;;;;;;4199043;34;20466;-60
2022/01/29 04:03:09;;;;;;;18.27;15.10;;;;;;;;;;4217977;34;20553;-60
2022/01/29 04:05:35;;;;;;;18.90;15.48;;;;;;;;;;4203062;34;20126;-61
2022/01/29 04:08:01;;;;;;;19.42;16.00;;;;;;;;;;4189929;34;20217;-60
2022/01/29 04:10:29;;;;;;;18.95;15.77;;;;;;;;;;4189322;34;20110;-60
2022/01/29 04:12:56;;;;;;;20.48;15.98;;;;;;;;;;4189503;34;20114;-60
2022/01/29 04:15:22;;;;;;;18.87;15.93;;;;;;;;;;4189661;34;20130;-60
2022/01/29 04:17:48;;;;;;;20.35;17.30;;;;;;;;;;4176885;34;20122;-60
2022/01/29 04:20:14;;;;;;;20.85;16.80;;;;;;;;;;4189086;34;20171;-60
2022/01/29 04:22:40;;;;;;;22.98;17.23;;;;;;;;;;4189912;34;20098;-60
2022/01/29 04:25:07;;;;;;;21.15;17.33;;;;;;;;;;4190984;34;20206;-59
2022/01/29 04:27:38;;;;;;;21.08;18.83;;;;;;;;;;4191966;34;20218;-59
2022/01/29 04:30:10;;;;;;;23.92;18.37;;;;;;;;;;4204714;34;20123;-61
2022/01/29 04:35:15;;;;;;;24.17;17.67;;;;;;;;;;4205605;34;20094;-61
2022/01/29 04:37:41;;;;;;;28.05;18.75;;;;;;;;;;4204396;34;20507;-60
2022/01/29 04:40:07;;;;;;;25.20;19.00;;;;;;;;;;4205074;34;20521;-60
2022/01/29 04:42:33;;;;;;;21.80;16.92;;;;;;;;;;4205531;34;20114;-61
2022/01/29 04:44:59;;;;;;;22.65;17.87;;;;;;;;;;4204016;34;20114;-61
2022/01/29 04:47:26;;;;;;;26.33;20.27;;;;;;;;;;4204718;34;20104;-60
2022/01/29 04:49:52;;;;;;;23.98;20.17;;;;;;;;;;4203513;34;20994;-60
2022/01/29 04:52:18;;;;;;;22.92;17.42;;;;;;;;;;4203490;34;20918;-61
2022/01/29 04:54:43;;;;;;;21.23;18.40;;;;;;;;;;4203122;34;20090;-59
2022/01/29 04:57:09;;;;;;;23.23;18.25;;;;;;;;;;4204484;34;20108;-60
2022/01/29 04:59:35;;;;;;;22.52;17.58;;;;;;;;;;4204983;34;20196;-60
2022/01/29 05:02:02;;;;;;;23.33;19.42;;;;;;;;;;4202839;34;20113;-60
2022/01/29 05:04:28;;;;;;;32.83;25.20;;;;;;;;;;4203525;34;20102;-59
2022/01/29 05:06:54;;;;;;;35.13;27.10;;;;;;;;;;4203967;34;20113;-60
2022/01/29 05:09:20;;;;;;;28.23;21.17;;;;;;;;;;4203874;34;20130;-60
2022/01/29 05:11:49;;;;;;;26.75;20.83;;;;;;;;;;4203593;34;20577;-60
2022/01/29 05:14:34;;;;;;;22.67;19.30;;;;;;;;;;4204114;34;20097;-59
2022/01/29 05:27:56;;;;;;;18.90;16.48;;;;;;;;;;4205109;34;20185;-64
2022/01/29 05:30:22;;;;;;;19.67;16.17;;;;;;;;;;4204791;34;20125;-62
2022/01/29 05:32:48;;;;;;;20.20;16.00;;;;;;;;;;4204186;34;20121;-61
2022/01/29 05:35:14;;;;;;;21.40;16.60;;;;;;;;;;4201243;34;20109;-61
2022/01/29 05:37:40;;;;;;;20.12;16.60;;;;;;;;;;4203312;34;20220;-61
2022/01/29 05:40:07;;;;;;;18.73;16.52;;;;;;;;;;4202942;34;20109;-62
2022/01/29 05:42:33;;;;;;;22.30;17.83;;;;;;;;;;4203009;34;20757;-62
2022/01/29 05:44:59;;;;;;;23.02;18.87;;;;;;;;;;4203136;34;20209;-62
2022/01/29 05:47:25;;;;;;;22.02;16.70;;;;;;;;;;4203283;34;20393;-61
2022/01/29 05:49:51;;;;;;;22.35;17.00;;;;;;;;;;4190340;34;20209;-60
2022/01/29 05:52:17;;;;;;;19.20;16.55;;;;;;;;;;4203738;34;20126;-61
2022/01/29 05:54:43;;;;;;;17.52;15.70;;;;;;;;;;4203136;34;20101;-61
2022/01/29 05:57:09;;;;;;;20.15;16.35;;;;;;;;;;4204889;34;20105;-60
2022/01/29 05:59:36;;;;;;;19.42;15.60;;;;;;;;;;4195117;34;20097;-65
2022/01/29 06:02:02;;;;;;;21.27;16.23;;;;;;;;;;4216458;34;20121;-64
2022/01/29 06:04:28;;;;;;;19.42;16.40;;;;;;;;;;4204453;34;20193;-60
2022/01/29 06:06:54;;;;;;;18.35;16.37;;;;;;;;;;4205637;34;20114;-60
2022/01/29 06:09:20;;;;;;;24.42;18.55;;;;;;;;;;4200842;34;20481;-60
2022/01/29 06:11:46;;;;;;;22.20;18.85;;;;;;;;;;4201608;34;20236;-59
2022/01/29 06:14:13;;;;;;;19.23;16.92;;;;;;;;;;4202401;34;20483;-60
2022/01/29 06:16:39;;;;;;;21.15;16.65;;;;;;;;;;4215050;34;20120;-60
2022/01/29 06:19:05;;;;;;;16.87;15.10;;;;;;;;;;4217197;34;20524;-60
2022/01/29 06:21:31;;;;;;;16.95;15.15;;;;;;;;;;4167679;34;20125;-60
2022/01/29 06:23:58;;;;;;;17.27;13.52;;;;;;;;;;4189525;34;20136;-60
2022/01/29 06:26:24;;;;;;;18.17;13.98;;;;;;;;;;4203669;34;20231;-60
2022/01/29 06:28:50;;;;;;;16.20;13.45;;;;;;;;;;4201634;34;20113;-60
2022/01/29 06:31:17;;;;;;;16.83;13.82;;;;;;;;;;4200242;34;20225;-61
2022/01/29 06:33:43;;;;;;;19.60;16.42;;;;;;;;;;4190956;34;20148;-62
2022/01/29 06:36:09;;;;;;;16.67;13.90;;;;;;;;;;4202397;34;20799;-61
2022/01/29 06:38:36;;;;;;;17.35;12.98;;;;;;;;;;4202630;34;20141;-61
2022/01/29 06:41:02;;;;;;;15.00;13.40;;;;;;;;;;4201215;34;20116;-60
2022/01/29 06:43:28;;;;;;;17.67;15.05;;;;;;;;;;4200857;34;20123;-61
2022/01/29 06:45:55;;;;;;;17.23;14.35;;;;;;;;;;4201846;34;20132;-61
2022/01/29 06:48:21;;;;;;;18.35;13.45;;;;;;;;;;4201774;34;20114;-59
2022/01/29 06:50:47;;;;;;;15.60;14.00;;;;;;;;;;4202630;34;20125;-61
2022/01/29 06:53:13;;;;;;;17.17;13.80;;;;;;;;;;4202527;34;20109;-61
2022/01/29 06:55:39;;;;;;;18.65;14.65;;;;;;;;;;4204133;34;20205;-60
2022/01/29 06:58:05;;;;;;;18.08;15.18;;;;;;;;;;4191068;34;20151;-60
2022/01/29 07:00:31;;;;;;;24.95;15.73;;;;;;;;;;4201924;34;20526;-61
2022/01/29 07:02:58;;;;;;;22.65;20.25;;;;;;;;;;4201232;34;20122;-61
2022/01/29 07:05:24;;;;;;;21.95;16.12;;;;;;;;;;4201058;34;20152;-61
2022/01/29 07:07:50;;;;;;;18.83;15.57;;;;;;;;;;4199555;34;20217;-66
2022/01/29 07:10:17;;;;;;;17.92;15.48;;;;;;;;;;4201827;34;20621;-70
2022/01/29 07:12:43;;;;;;;21.05;14.73;;;;;;;;;;4198677;34;20144;-72
2022/01/29 07:15:10;;;;;;;17.65;15.27;;;;;;;;;;4190987;34;20442;-66
2022/01/29 07:17:37;;;;;;;18.60;15.68;;;;;;;;;;4202914;34;20133;-63
2022/01/29 07:20:04;;;;;;;16.65;14.35;;;;;;;;;;4202802;34;20081;-65
2022/01/29 07:22:31;;;;;;;17.30;14.75;;;;;;;;;;4203211;34;20116;-66
2022/01/29 07:24:57;;;;;;;16.27;13.35;;;;;;;;;;4203140;34;20129;-65
2022/01/29 07:27:23;;;;;;;15.88;13.70;;;;;;;;;;4203113;34;20209;-65
2022/01/29 07:29:49;;;;;;;17.35;14.63;;;;;;;;;;4190214;34;20151;-64
2022/01/29 07:32:15;;;;;;;20.92;16.55;;;;;;;;;;4203140;34;20198;-63
2022/01/29 07:34:41;;;;;;;17.12;14.82;;;;;;;;;;4204547;34;20181;-66
2022/01/29 07:37:08;;;;;;;18.75;15.25;;;;;;;;;;4201890;34;20209;-64
2022/01/29 07:39:34;;;;;;;19.67;14.15;;;;;;;;;;4203416;34;20225;-65
2022/01/29 07:42:01;;;;;;;19.25;13.95;;;;;;;;;;4203099;34;20110;-64
2022/01/29 07:44:27;;;;;;;16.42;13.93;;;;;;;;;;4190007;34;20149;-64
2022/01/29 07:46:53;;;;;;;15.75;13.38;;;;;;;;;;4203067;34;20137;-63
2022/01/29 07:49:19;;;;;;;17.73;13.70;;;;;;;;;;4202721;34;20469;-63
2022/01/29 07:51:45;;;;;;;15.88;13.70;;;;;;;;;;4202673;34;20122;-63
2022/01/29 07:54:11;;;;;;;16.85;12.93;;;;;;;;;;4203464;34;20465;-62
2022/01/29 07:56:38;;;;;;;17.95;14.23;;;;;;;;;;4203783;34;20137;-65
2022/01/29 07:59:04;;;;;;;18.95;14.10;;;;;;;;;;4203960;34;20109;-62
2022/01/29 08:01:30;;;;;;;16.73;13.57;;;;;;;;;;4205918;34;20541;-63
2022/01/29 08:03:56;;;;;;;19.08;14.35;;;;;;;;;;4192663;34;20205;-63
2022/01/29 08:06:23;;;;;;;16.52;13.77;;;;;;;;;;4206023;34;20208;-65
2022/01/29 08:08:49;;;;;;;18.65;14.82;;;;;;;;;;4205889;34;20842;-64
2022/01/29 08:11:16;;;;;;;17.58;13.27;;;;;;;;;;4192525;34;20114;-64
2022/01/29 08:13:43;;;;;;;18.10;14.50;;;;;;;;;;4204864;34;20260;-64
2022/01/29 08:16:09;;;;;;;17.92;15.00;;;;;;;;;;4205653;34;20093;-64
2022/01/29 08:18:35;;;;;;;15.93;13.73;;;;;;;;;;4204667;34;20679;-63
2022/01/29 08:21:01;;;;;;;16.87;12.07;;;;;;;;;;4205132;34;20110;-64
2022/01/29 08:23:28;;;;;;;16.55;12.20;;;;;;;;;;4205682;34;20093;-62
2022/01/29 08:25:54;;;;;;;16.92;13.43;;;;;;;;;;4206134;34;20109;-62
2022/01/29 08:28:20;;;;;;;15.65;12.95;;;;;;;;;;4205680;34;20106;-62
2022/01/29 08:30:46;;;;;;;14.68;13.10;;;;;;;;;;4205755;34;20110;-62
2022/01/29 08:33:17;;;;;;;16.20;12.93;;;;;;;;;;4205624;34;20097;-62
2022/01/29 08:35:47;;;;;;;17.48;14.30;;;;;;;;;;4206067;34;20124;-62
2022/01/29 08:38:14;;;;;;;16.50;13.50;;;;;;;;;;4205591;34;20121;-62
2022/01/29 08:40:40;;;;;;;20.08;14.90;;;;;;;;;;4205739;34;20135;-63
2022/01/29 08:43:06;;;;;;;17.95;13.95;;;;;;;;;;4205600;34;20124;-62
2022/01/29 08:45:32;;;;;;;18.37;13.43;;;;;;;;;;4205656;34;20128;-64
2022/01/29 08:47:58;;;;;;;16.23;14.25;;;;;;;;;;4205541;34;20133;-63
2022/01/29 08:50:24;;;;;;;19.62;14.77;;;;;;;;;;4205584;34;20114;-63
2022/01/29 08:52:50;;;;;;;17.40;14.18;;;;;;;;;;4203298;34;20124;-64
2022/01/29 08:55:16;;;;;;;17.52;14.77;;;;;;;;;;4200028;34;20114;-64
2022/01/29 08:57:42;;;;;;;17.05;13.80;;;;;;;;;;4204347;34;20099;-64
2022/01/29 09:00:09;;;;;;;17.20;13.13;;;;;;;;;;4203940;34;20121;-64
2022/01/29 09:02:36;;;;;;;19.20;13.25;;;;;;;;;;4191687;34;20106;-64
2022/01/29 09:05:03;;;;;;;17.33;13.55;;;;;;;;;;4203309;34;20114;-65
2022/01/29 09:07:29;;;;;;;17.20;12.25;;;;;;;;;;4201932;34;20121;-66
2022/01/29 09:09:55;;;;;;;16.75;12.18;;;;;;;;;;4202765;34;20133;-65
2022/01/29 09:12:21;;;;;;;17.33;12.15;;;;;;;;;;4203490;34;20119;-65
2022/01/29 09:14:48;;;;;;;12.73;7.95;;;;;;;;;;4203879;34;20193;-67
2022/01/29 09:17:14;;;;;;;22.62;9.35;;;;;;;;;;4204598;34;20106;-66
2022/01/29 09:19:40;;;;;;;16.52;9.02;;;;;;;;;;4203664;34;20609;-65
2022/01/29 09:22:06;;;;;;;15.85;9.63;;;;;;;;;;4205335;34;20129;-65
2022/01/29 09:24:32;;;;;;;14.75;9.38;;;;;;;;;;4204278;34;20182;-65
2022/01/29 09:26:58;;;;;;;16.17;8.60;;;;;;;;;;4205182;34;20141;-67
2022/01/29 09:29:24;;;;;;;17.33;9.95;;;;;;;;;;4192483;34;20129;-66
2022/01/29 09:31:51;;;;;;;14.98;9.68;;;;;;;;;;4205169;34;20209;-62
2022/01/29 09:34:17;;;;;;;17.52;10.05;;;;;;;;;;4192557;34;20128;-63
2022/01/29 09:36:43;;;;;;;18.75;11.65;;;;;;;;;;4192318;34;20125;-60
2022/01/29 09:39:10;;;;;;;14.25;10.60;;;;;;;;;;4202933;34;20122;-63
2022/01/29 09:41:38;;;;;;;15.70;9.73;;;;;;;;;;4191359;34;20474;-64
2022/01/29 09:44:04;;;;;;;18.70;14.38;;;;;;;;;;4201216;34;20298;-63
2022/01/29 09:46:31;;;;;;;26.80;21.80;;;;;;;;;;4203040;34;20204;-64
2022/01/29 09:48:58;;;;;;;23.08;19.20;;;;;;;;;;4203295;34;20137;-63
2022/01/29 09:51:26;;;;;;;16.15;13.30;;;;;;;;;;4204985;34;20122;-63
2022/01/29 09:53:52;;;;;;;16.02;13.57;;;;;;;;;;4204725;34;20653;-63
2022/01/29 09:56:18;;;;;;;18.62;16.33;;;;;;;;;;4205198;34;20141;-61
2022/01/29 09:58:44;;;;;;;17.73;14.48;;;;;;;;;;4201270;34;20118;-62
2022/01/29 10:01:11;;;;;;;15.90;13.25;;;;;;;;;;4203014;34;20940;-62
2022/01/29 10:03:37;;;;;;;18.27;14.30;;;;;;;;;;4212850;34;20145;-62
2022/01/29 10:06:04;;;;;;;18.20;14.52;;;;;;;;;;4201991;34;20857;-63
2022/01/29 10:08:41;;;;;;;15.85;13.15;;;;;;;;;;4202465;34;20112;-63
2022/01/29 10:11:19;;;;;;;19.23;13.05;;;;;;;;;;4202967;34;20113;-64
2022/01/29 10:13:45;;;;;;;15.82;13.13;;;;;;;;;;4204503;34;20093;-64
2022/01/29 10:16:20;;;;;;;16.52;12.65;;;;;;;;;;4204963;34;20180;-64
2022/01/29 10:19:00;;;;;;;17.93;14.17;;;;;;;;;;4203144;34;20145;-65
2022/01/29 10:21:30;;;;;;;19.15;15.05;;;;;;;;;;4204767;34;20205;-65
2022/01/29 10:24:07;;;;;;;18.00;13.62;;;;;;;;;;4204828;34;20094;-65
2022/01/29 10:26:38;;;;;;;17.08;12.52;;;;;;;;;;4205121;34;20533;-65
2022/01/29 10:29:07;;;;;;;16.15;12.95;;;;;;;;;;4204813;34;20125;-65
2022/01/29 10:31:42;;;;;;;17.12;13.43;;;;;;;;;;4205108;34;20113;-66
2022/01/29 10:34:27;;;;;;;14.15;12.65;;;;;;;;;;4204775;34;20122;-66
2022/01/29 10:37:13;;;;;;;18.40;12.35;;;;;;;;;;4204805;34;20112;-65
2022/01/29 10:39:44;;;;;;;15.50;11.95;;;;;;;;;;4204384;34;20117;-64
2022/01/29 10:42:22;;;;;;;14.15;12.25;;;;;;;;;;4204732;34;20114;-63
2022/01/29 10:44:51;;;;;;;13.10;11.68;;;;;;;;;;4214651;34;20525;-65
2022/01/29 10:47:17;;;;;;;14.35;11.12;;;;;;;;;;4204738;34;20645;-64
2022/01/29 10:49:55;;;;;;;13.62;11.65;;;;;;;;;;4204352;34;20095;-63
2022/01/29 10:52:32;;;;;;;17.95;15.32;;;;;;;;;;4203394;34;20101;-63
2022/01/29 10:55:00;;;;;;;18.23;16.30;;;;;;;;;;4204289;34;20129;-63
2022/01/29 10:57:38;;;;;;;16.05;13.77;;;;;;;;;;4204479;34;20625;-62
2022/01/29 11:00:06;;;;;;;17.55;13.70;;;;;;;;;;4204469;34;20105;-64
2022/01/29 11:02:33;;;;;;;15.45;13.45;;;;;;;;;;4204481;34;20101;-64
2022/01/29 11:05:03;;;;;;;14.27;12.40;;;;;;;;;;4203520;34;20213;-62
2022/01/29 11:07:31;;;;;;;16.87;13.23;;;;;;;;;;4204430;34;20121;-65
2022/01/29 11:10:01;;;;;;;21.98;16.67;;;;;;;;;;4201927;34;20209;-62
2022/01/29 11:12:29;;;;;;;27.15;20.98;;;;;;;;;;4190697;34;20117;-64
2022/01/29 11:15:00;;;;;;;17.80;15.13;;;;;;;;;;4203015;34;20113;-63
2022/01/29 11:17:27;;;;;;;19.05;14.60;;;;;;;;;;4202441;34;20133;-63
2022/01/29 11:19:54;;;;;;;17.52;15.25;;;;;;;;;;4203796;34;20105;-64
2022/01/29 11:22:25;;;;;;;16.45;13.95;;;;;;;;;;4204039;34;20117;-63
2022/01/29 11:25:00;;;;;;;15.38;13.13;;;;;;;;;;4203138;34;20113;-65
2022/01/29 11:27:28;;;;;;;16.30;13.27;;;;;;;;;;4203857;34;20231;-64
2022/01/29 11:30:01;;;;;;;15.90;14.20;;;;;;;;;;4202963;34;20124;-67
2022/01/29 11:32:32;;;;;;;17.23;14.82;;;;;;;;;;4204263;34;20134;-67
2022/01/29 11:35:17;;;;;;;15.93;13.62;;;;;;;;;;4203528;34;20464;-67
2022/01/29 11:37:57;;;;;;;19.45;14.60;;;;;;;;;;4201217;34;20109;-67
2022/01/29 11:40:30;;;;;;;15.73;13.38;;;;;;;;;;4200554;34;20117;-68
2022/01/29 11:43:13;;;;;;;18.30;14.65;;;;;;;;;;4202741;34;20236;-67
2022/01/29 11:45:44;;;;;;;18.87;16.23;;;;;;;;;;4200438;34;20113;-68
2022/01/29 11:48:33;;;;;;;21.30;15.43;;;;;;;;;;4202903;34;20120;-67
2022/01/29 11:51:02;;;;;;;16.48;14.73;;;;;;;;;;4201791;34;20113;-67
2022/01/29 11:53:49;;;;;;;17.37;14.50;;;;;;;;;;4201466;34;21509;-68
2022/01/29 11:56:29;;;;;;;17.40;14.77;;;;;;;;;;4203031;34;20125;-67
2022/01/29 11:59:17;;;;;;;18.73;15.63;;;;;;;;;;4197602;34;20101;-67
2022/01/29 12:01:44;;;;;;;21.08;17.92;;;;;;;;;;4197881;34;20098;-68
2022/01/29 12:04:10;;;;;;;25.00;21.12;;;;;;;;;;4201077;34;20099;-68
2022/01/29 12:06:42;;;;;;;22.13;18.80;;;;;;;;;;4202558;34;20313;-67
2022/01/29 12:09:25;;;;;;;17.87;15.73;;;;;;;;;;4200457;34;20189;-66
2022/01/29 12:12:20;;;;;;;19.30;14.95;;;;;;;;;;4201058;34;20225;-66
2022/01/29 12:14:51;;;;;;;17.55;15.48;;;;;;;;;;4188011;34;20075;-67
2022/01/29 12:17:44;;;;;;;17.17;14.25;;;;;;;;;;4190071;34;20094;-67
2022/01/29 12:20:20;;;;;;;16.50;13.88;;;;;;;;;;4200111;34;20130;-67
2022/01/29 12:22:47;;;;;;;18.83;16.00;;;;;;;;;;4202353;34;20209;-67
2022/01/29 12:25:19;;;;;;;20.98;17.80;;;;;;;;;;4202298;34;20129;-67
2022/01/29 12:28:01;;;;;;;19.58;16.70;;;;;;;;;;4199699;34;20185;-65
2022/01/29 12:30:30;;;;;;;16.55;14.50;;;;;;;;;;4202159;34;20127;-67
2022/01/29 12:32:59;;;;;;;18.92;15.95;;;;;;;;;;4202099;34;20205;-67
2022/01/29 12:35:53;;;;;;;19.55;16.75;;;;;;;;;;4200598;34;20118;-67
2022/01/29 12:38:22;;;;;;;24.55;18.80;;;;;;;;;;4186635;34;20117;-69
2022/01/29 12:40:56;;;;;;;20.95;17.58;;;;;;;;;;4199584;34;20106;-68
2022/01/29 12:43:53;;;;;;;21.75;16.80;;;;;;;;;;4189267;34;20102;-70
2022/01/29 12:46:24;;;;;;;27.95;24.08;;;;;;;;;;4181088;34;20217;-68
2022/01/29 12:49:16;;;;;;;22.37;18.98;;;;;;;;;;4201798;34;20125;-68
2022/01/29 12:51:52;;;;;;;20.23;17.45;;;;;;;;;;4187923;34;20136;-68
2022/01/29 12:54:18;;;;;;;22.10;16.90;;;;;;;;;;4204169;34;20469;-67
2022/01/29 12:56:45;;;;;;;22.45;17.83;;;;;;;;;;4204900;34;20106;-67
2022/01/29 12:59:12;;;;;;;23.60;18.42;;;;;;;;;;4191419;34;20165;-68
2022/01/29 13:01:40;;;;;;;19.85;16.25;;;;;;;;;;4193016;34;20163;-67
2022/01/29 13:04:07;;;;;;;20.23;15.95;;;;;;;;;;4191968;34;20117;-67
2022/01/29 13:06:34;;;;;;;23.20;19.05;;;;;;;;;;4204612;34;20109;-67
2022/01/29 13:09:19;;;;;;;19.83;16.65;;;;;;;;;;4204462;34;20751;-68
2022/01/29 13:11:46;;;;;;;19.40;14.70;;;;;;;;;;4203542;34;20105;-68
2022/01/29 13:14:17;;;;;;;22.70;18.67;;;;;;;;;;4204342;34;20109;-66
2022/01/29 13:16:48;;;;;;;27.20;22.62;;;;;;;;;;4204577;34;20106;-68
2022/01/29 13:19:17;;;;;;;25.42;21.58;;;;;;;;;;4204183;34;20122;-67
2022/01/29 13:21:43;;;;;;;23.27;20.10;;;;;;;;;;4191588;34;20093;-68
2022/01/29 13:24:31;;;;;;;26.60;21.10;;;;;;;;;;4191273;34;20445;-68
2022/01/29 13:26:59;;;;;;;27.25;20.48;;;;;;;;;;4202896;34;20124;-68
2022/01/29 13:29:33;;;;;;;26.37;21.52;;;;;;;;;;4191393;34;20089;-65
2022/01/29 13:32:04;;;;;;;24.35;19.12;;;;;;;;;;4202528;34;20421;-66
2022/01/29 13:34:34;;;;;;;27.60;23.20;;;;;;;;;;4203512;34;20110;-66
2022/01/29 13:37:01;;;;;;;21.23;17.85;;;;;;;;;;4190250;34;20122;-65
2022/01/29 13:39:28;;;;;;;18.87;16.17;;;;;;;;;;4204127;34;20167;-66
2022/01/29 13:42:15;;;;;;;22.02;18.50;;;;;;;;;;4203686;34;20090;-65
2022/01/29 13:45:00;;;;;;;25.40;20.55;;;;;;;;;;4192495;34;20212;-65
2022/01/29 13:47:26;;;;;;;22.33;16.95;;;;;;;;;;4201748;34;20120;-65
2022/01/29 13:49:53;;;;;;;17.65;15.10;;;;;;;;;;4202899;34;20527;-66
2022/01/29 13:52:22;;;;;;;22.70;18.85;;;;;;;;;;4204634;34;20190;-68
2022/01/29 13:54:52;;;;;;;22.10;19.20;;;;;;;;;;4204092;34;20562;-68
2022/01/29 13:57:18;;;;;;;23.83;18.50;;;;;;;;;;4190127;34;20113;-65
2022/01/29 13:59:46;;;;;;;19.17;15.52;;;;;;;;;;4202833;34;20110;-67
2022/01/29 14:02:12;;;;;;;19.17;15.43;;;;;;;;;;4200690;34;20110;-66
2022/01/29 14:04:43;;;;;;;20.73;18.35;;;;;;;;;;4203694;34;20525;-68
2022/01/29 14:07:13;;;;;;;19.65;17.20;;;;;;;;;;4184749;34;20130;-69
2022/01/29 14:12:28;;;;;;;20.62;17.02;;;;;;;;;;4187001;34;20118;-66
2022/01/29 14:14:55;;;;;;;19.15;16.65;;;;;;;;;;4190926;34;20582;-67
2022/01/29 14:17:37;;;;;;;18.65;15.70;;;;;;;;;;4189583;34;20102;-66
2022/01/29 14:20:06;;;;;;;24.15;20.27;;;;;;;;;;4190756;34;20118;-68
2022/01/29 14:22:35;;;;;;;21.20;17.95;;;;;;;;;;4166931;34;20207;-68
2022/01/29 14:25:06;;;;;;;20.52;17.58;;;;;;;;;;4198894;34;20209;-65
2022/01/29 14:27:32;;;;;;;22.30;19.92;;;;;;;;;;4203324;34;20105;-74
2022/01/29 14:29:58;;;;;;;24.58;20.67;;;;;;;;;;4180382;34;20105;-68
2022/01/29 14:32:26;;;;;;;25.10;20.83;;;;;;;;;;4191845;34;20611;-69
2022/01/29 14:34:52;;;;;;;23.02;19.73;;;;;;;;;;4177956;34;20086;-71
2022/01/29 14:37:18;;;;;;;21.95;18.20;;;;;;;;;;4189532;34;20122;-68
2022/01/29 14:39:46;;;;;;;21.15;18.60;;;;;;;;;;4187672;34;20105;-69
2022/01/29 14:42:12;;;;;;;23.08;19.45;;;;;;;;;;4191925;34;20109;-69
2022/01/29 14:44:43;;;;;;;22.00;18.85;;;;;;;;;;4180766;34;20129;-70
2022/01/29 14:47:12;;;;;;;20.92;18.20;;;;;;;;;;4180742;34;20494;-70
2022/01/29 14:49:41;;;;;;;23.25;18.58;;;;;;;;;;4188458;34;20346;-72
2022/01/29 14:52:07;;;;;;;22.30;18.12;;;;;;;;;;4189444;34;20521;-70
2022/01/29 14:54:35;;;;;;;20.55;17.65;;;;;;;;;;4177958;34;20108;-70
2022/01/29 14:57:02;;;;;;;23.65;17.52;;;;;;;;;;4198520;34;20519;-74
2022/01/29 14:59:28;;;;;;;22.60;17.17;;;;;;;;;;4191711;34;20102;-75
2022/01/29 15:01:54;;;;;;;21.35;18.95;;;;;;;;;;4187025;34;20791;-76